EGJB - Guernsey Airport
Distance from station: E 5mi, 14km
Updated: 06/18/2018 9:50am
Mostly Cloudy
Mostly Cloudy
 Wind from W
Wind: W 18 mph , 30 km/h
Temperature: 61°F , 16°C
Dew Point: 57°F , 14°C
Humidity: 88%
Barometer: 30.24 inHg , 1024 hPa
Clouds: Mostly Cloudy
Visibility: 6 miles , 10 km
Cloud details: Few Clouds 300 ft
Partly Cloudy 400 ft
Mostly Cloudy 1000 ft
2018/06/18 16:50 EGJB 181650Z 26016KT 9999 FEW003 SCT004 BKN010 16/14 Q1024